Time;durP1;ratioP1;P1;durP2;ratioP2;P2;SDS_P1;SDS_P2;PMS_P1;PMS_P2;Temp;Humidity;BMP_temperature;BMP_pressure;BME280_temperature;BME280_humidity;BME280_pressure;Samples;Min_cycle;Max_cycle;Signal;HPM_P1;HPM_P2
2022/07/19 00:00:11;;;;;;;6.67;2.87;;;23.00;48.90;;;;;;4989464;28;20488;-45
2022/07/19 00:02:38;;;;;;;4.07;3.43;;;23.00;48.70;;;;;;4965048;28;20460;-45
2022/07/19 00:05:08;;;;;;;5.13;3.47;;;22.90;48.80;;;;;;4971526;28;20469;-45
2022/07/19 00:07:35;;;;;;;4.30;2.73;;;22.90;49.00;;;;;;4987290;28;20456;-45
2022/07/19 00:10:04;;;;;;;3.23;2.93;;;22.90;49.10;;;;;;4985753;28;20460;-45
2022/07/19 00:12:31;;;;;;;4.00;2.90;;;22.80;49.10;;;;;;4985789;28;21001;-44
2022/07/19 00:14:58;;;;;;;3.30;3.00;;;22.80;49.20;;;;;;4989176;28;20464;-44
2022/07/19 00:17:25;;;;;;;3.77;3.47;;;22.80;49.40;;;;;;4986824;28;20725;-45
2022/07/19 00:19:52;;;;;;;5.43;3.37;;;22.70;49.30;;;;;;4968553;28;20464;-45
2022/07/19 00:22:18;;;;;;;4.23;3.27;;;22.70;49.50;;;;;;4987366;28;21006;-45
2022/07/19 00:24:45;;;;;;;5.53;4.17;;;22.60;49.70;;;;;;4969173;28;20467;-45
2022/07/19 00:27:12;;;;;;;7.57;3.67;;;22.60;49.70;;;;;;4986645;28;20457;-45
2022/07/19 00:29:39;;;;;;;7.37;3.97;;;22.50;49.80;;;;;;4986382;28;20461;-45
2022/07/19 00:32:06;;;;;;;4.20;3.53;;;22.50;50.00;;;;;;4987174;28;20475;-45
2022/07/19 00:34:33;;;;;;;4.10;3.67;;;22.40;50.10;;;;;;4968227;28;20498;-45
2022/07/19 00:37:00;;;;;;;4.90;3.70;;;22.40;50.30;;;;;;4985868;28;20481;-45
2022/07/19 00:39:27;;;;;;;4.17;3.77;;;22.30;50.30;;;;;;4985623;28;20461;-45
2022/07/19 00:41:54;;;;;;;3.80;3.20;;;22.30;50.50;;;;;;4987473;28;20464;-45
2022/07/19 00:44:21;;;;;;;5.60;3.27;;;22.30;50.50;;;;;;4985553;28;20460;-45
2022/07/19 00:46:49;;;;;;;5.37;3.80;;;22.30;50.60;;;;;;4986603;28;20465;-44
2022/07/19 00:49:16;;;;;;;5.00;3.53;;;22.20;50.60;;;;;;4968973;28;20965;-45
2022/07/19 00:51:43;;;;;;;3.40;3.20;;;22.20;50.70;;;;;;4968128;28;20464;-45
2022/07/19 00:54:12;;;;;;;6.37;3.70;;;22.20;50.80;;;;;;4986797;28;20520;-45
2022/07/19 00:56:42;;;;;;;8.03;3.13;;;22.20;50.80;;;;;;4989013;28;20786;-44
2022/07/19 00:59:10;;;;;;;5.60;3.80;;;22.10;50.80;;;;;;4968695;28;21077;-45
2022/07/19 01:01:37;;;;;;;3.83;3.43;;;22.10;50.90;;;;;;4988312;28;20460;-45
2022/07/19 01:04:04;;;;;;;5.30;3.83;;;22.10;51.00;;;;;;4990982;28;20472;-45
2022/07/19 01:06:31;;;;;;;6.43;3.50;;;22.00;51.00;;;;;;4989006;28;20472;-45
2022/07/19 01:08:58;;;;;;;5.07;3.57;;;22.00;51.00;;;;;;4991045;28;20837;-45
2022/07/19 01:11:25;;;;;;;3.77;3.43;;;22.00;50.90;;;;;;4989515;28;20476;-45
2022/07/19 01:13:52;;;;;;;5.40;3.63;;;22.00;51.10;;;;;;4972138;28;20981;-45
2022/07/19 01:16:19;;;;;;;3.90;3.20;;;21.90;51.20;;;;;;4986857;28;20492;-44
2022/07/19 01:18:46;;;;;;;7.20;3.67;;;21.90;51.30;;;;;;4988630;28;20468;-45
2022/07/19 01:21:23;;;;;;;4.53;3.90;;;21.90;51.50;;;;;;4988807;28;20464;-45
2022/07/19 01:23:50;;;;;;;4.00;3.63;;;21.80;51.60;;;;;;4992207;28;20472;-44
2022/07/19 01:26:17;;;;;;;4.80;3.43;;;21.80;51.70;;;;;;4989825;28;20467;-45
2022/07/19 01:28:45;;;;;;;4.67;3.80;;;21.80;51.90;;;;;;4988697;28;20467;-45
2022/07/19 01:31:12;;;;;;;3.80;3.40;;;21.80;52.00;;;;;;4990103;28;20501;-45
2022/07/19 01:33:44;;;;;;;4.03;3.63;;;21.70;52.00;;;;;;4989373;28;21073;-45
2022/07/19 01:36:11;;;;;;;6.10;3.77;;;21.70;52.10;;;;;;4989819;28;20513;-44
2022/07/19 01:38:39;;;;;;;4.20;3.70;;;21.70;52.40;;;;;;4973616;28;20556;-45
2022/07/19 01:41:06;;;;;;;8.47;5.80;;;21.70;52.50;;;;;;4988288;28;20498;-45
2022/07/19 01:43:34;;;;;;;5.77;3.77;;;21.70;52.50;;;;;;4988960;28;20933;-47
2022/07/19 01:46:02;;;;;;;4.50;3.90;;;21.70;52.60;;;;;;4989207;28;20472;-45
2022/07/19 01:48:29;;;;;;;5.60;4.23;;;21.60;52.70;;;;;;4988337;28;20497;-45
2022/07/19 01:50:56;;;;;;;4.87;4.00;;;21.60;52.50;;;;;;4990047;28;20506;-44
2022/07/19 01:53:23;;;;;;;8.30;4.10;;;21.60;52.40;;;;;;4990236;28;20588;-44
2022/07/19 01:55:50;;;;;;;4.27;3.53;;;21.60;52.50;;;;;;4989607;28;21041;-45
2022/07/19 01:58:17;;;;;;;6.00;4.00;;;21.50;52.90;;;;;;4973520;28;20461;-44
2022/07/19 02:00:45;;;;;;;6.00;3.80;;;21.50;52.90;;;;;;4988763;28;20468;-44
2022/07/19 02:03:11;;;;;;;5.13;3.60;;;21.50;53.20;;;;;;4969890;28;20520;-44
2022/07/19 02:05:38;;;;;;;7.83;4.40;;;21.40;53.10;;;;;;4986983;28;20743;-44
2022/07/19 02:08:06;;;;;;;5.60;3.60;;;21.40;53.20;;;;;;4986537;28;20469;-45
2022/07/19 02:10:33;;;;;;;4.10;3.43;;;21.40;53.30;;;;;;4970181;28;20540;-45
2022/07/19 02:13:00;;;;;;;4.80;4.33;;;21.30;53.40;;;;;;4987877;28;20576;-46
2022/07/19 02:15:26;;;;;;;10.27;4.87;;;21.40;53.40;;;;;;4988768;28;20468;-45
2022/07/19 02:17:53;;;;;;;4.53;4.00;;;21.30;53.40;;;;;;4988272;28;20930;-44
2022/07/19 02:20:20;;;;;;;7.27;4.40;;;21.20;53.60;;;;;;4987621;28;20462;-45
2022/07/19 02:22:47;;;;;;;8.23;4.10;;;21.20;53.50;;;;;;4988686;28;20462;-45
2022/07/19 02:25:13;;;;;;;7.57;3.73;;;21.20;53.60;;;;;;4989250;28;21468;-45
2022/07/19 02:27:41;;;;;;;4.50;3.93;;;21.10;53.80;;;;;;4991276;28;20453;-44
2022/07/19 02:30:11;;;;;;;4.70;3.80;;;21.10;53.90;;;;;;4987917;28;20533;-44
2022/07/19 02:32:38;;;;;;;8.60;3.90;;;21.10;53.90;;;;;;4987798;28;20461;-44
2022/07/19 02:35:07;;;;;;;4.30;3.50;;;21.10;53.90;;;;;;4987787;28;20493;-44
2022/07/19 02:37:34;;;;;;;6.40;4.37;;;21.00;53.70;;;;;;4988258;28;20487;-45
2022/07/19 02:40:00;;;;;;;4.60;3.80;;;21.00;53.60;;;;;;4988521;28;20464;-44
2022/07/19 02:42:27;;;;;;;5.63;3.47;;;21.00;53.50;;;;;;4986703;28;20980;-44
2022/07/19 02:44:54;;;;;;;3.87;3.40;;;21.00;53.40;;;;;;4989684;28;20556;-44
2022/07/19 02:47:24;;;;;;;7.00;3.90;;;20.90;53.50;;;;;;4989155;28;20525;-45
2022/07/19 02:49:55;;;;;;;6.30;3.57;;;20.90;53.50;;;;;;4988617;28;20471;-44
2022/07/19 02:52:22;;;;;;;5.43;3.10;;;20.90;53.30;;;;;;4988947;28;20520;-44
2022/07/19 02:54:49;;;;;;;8.00;3.90;;;20.90;53.50;;;;;;4988089;28;20503;-44
2022/07/19 02:57:16;;;;;;;6.80;3.70;;;20.80;53.70;;;;;;4989237;28;21009;-44
2022/07/19 02:59:43;;;;;;;5.50;3.27;;;20.80;53.70;;;;;;4987826;28;20469;-44
2022/07/19 03:02:09;;;;;;;4.83;3.23;;;20.80;53.60;;;;;;4987586;28;20465;-45
2022/07/19 03:04:36;;;;;;;4.53;3.57;;;20.80;53.60;;;;;;4966560;28;20469;-45
2022/07/19 03:07:03;;;;;;;4.27;3.43;;;20.70;53.70;;;;;;4987515;28;20457;-44
2022/07/19 03:09:30;;;;;;;9.23;4.07;;;20.60;54.00;;;;;;4988587;28;20467;-44
2022/07/19 03:11:56;;;;;;;5.90;3.20;;;20.60;54.10;;;;;;4989664;28;20467;-44
2022/07/19 03:14:23;;;;;;;3.50;3.20;;;20.60;54.30;;;;;;4985977;28;20481;-44
2022/07/19 03:16:50;;;;;;;6.03;4.37;;;20.50;54.50;;;;;;4987243;28;20469;-45
2022/07/19 03:19:17;;;;;;;5.47;3.50;;;20.40;54.70;;;;;;4987024;28;20449;-44
2022/07/19 03:21:43;;;;;;;7.13;4.47;;;20.40;54.80;;;;;;4987384;28;20538;-44
2022/07/19 03:24:10;;;;;;;4.27;3.10;;;20.40;54.90;;;;;;4988751;28;20461;-44
2022/07/19 03:26:37;;;;;;;3.33;3.03;;;20.30;55.00;;;;;;4988523;28;20504;-45
2022/07/19 03:29:04;;;;;;;5.07;3.60;;;20.30;55.20;;;;;;4966901;28;20476;-45
2022/07/19 03:31:30;;;;;;;4.47;3.57;;;20.30;55.30;;;;;;4987178;28;20552;-44
2022/07/19 03:33:57;;;;;;;6.90;3.50;;;20.30;55.40;;;;;;4976999;28;20490;-45
2022/07/19 03:36:24;;;;;;;4.60;3.53;;;20.20;55.40;;;;;;4986584;28;20481;-45
2022/07/19 03:38:51;;;;;;;3.93;3.30;;;20.20;55.50;;;;;;4989129;28;20792;-44
2022/07/19 03:41:18;;;;;;;4.57;3.70;;;20.20;55.60;;;;;;4988104;28;20461;-45
2022/07/19 03:43:45;;;;;;;4.60;3.90;;;20.20;55.60;;;;;;4988273;28;20457;-45
2022/07/19 03:46:12;;;;;;;4.33;3.40;;;20.20;55.80;;;;;;4986708;28;20938;-44
2022/07/19 03:48:39;;;;;;;3.53;3.03;;;20.20;55.70;;;;;;4973427;28;20469;-45
2022/07/19 03:51:06;;;;;;;3.73;3.10;;;20.20;55.60;;;;;;4987417;28;20474;-45
2022/07/19 03:53:34;;;;;;;5.37;3.43;;;20.10;55.80;;;;;;4985737;28;20531;-45
2022/07/19 03:56:01;;;;;;;4.00;3.43;;;20.10;55.90;;;;;;4986892;28;20539;-44
2022/07/19 03:58:28;;;;;;;3.47;3.17;;;20.10;56.00;;;;;;4987415;28;21036;-45
2022/07/19 04:00:55;;;;;;;5.00;3.80;;;20.10;56.20;;;;;;4985270;28;20465;-45
2022/07/19 04:03:22;;;;;;;4.13;3.10;;;20.10;56.50;;;;;;4987580;28;20959;-46
2022/07/19 04:05:49;;;;;;;5.43;3.40;;;20.00;56.60;;;;;;4984976;28;20955;-46
2022/07/19 04:08:16;;;;;;;3.73;3.40;;;20.00;56.70;;;;;;4985349;28;20989;-45
2022/07/19 04:10:43;;;;;;;4.50;3.63;;;20.00;56.80;;;;;;4986183;28;20470;-46
2022/07/19 04:13:10;;;;;;;8.20;3.60;;;20.00;56.90;;;;;;4986110;28;21105;-46
2022/07/19 04:15:37;;;;;;;9.27;3.70;;;20.00;57.10;;;;;;4957153;28;20465;-45
2022/07/19 04:18:11;;;;;;;6.27;3.50;;;20.00;57.20;;;;;;4968879;28;20458;-46
2022/07/19 04:20:38;;;;;;;8.17;4.37;;;20.00;57.20;;;;;;4984165;28;20465;-46
2022/07/19 04:23:05;;;;;;;4.10;3.60;;;20.10;57.40;;;;;;4969502;28;20812;-46
2022/07/19 04:25:31;;;;;;;4.67;3.70;;;20.00;57.40;;;;;;4985696;28;20487;-46
2022/07/19 04:27:58;;;;;;;4.60;3.40;;;20.10;57.40;;;;;;4987790;28;20457;-46
2022/07/19 04:30:25;;;;;;;3.60;3.17;;;20.10;57.40;;;;;;4969256;28;20461;-46
2022/07/19 04:32:52;;;;;;;4.10;3.50;;;20.10;57.50;;;;;;4992605;28;20555;-46
2022/07/19 04:35:19;;;;;;;4.33;3.97;;;20.10;57.70;;;;;;4987361;28;20492;-45
2022/07/19 04:37:45;;;;;;;3.83;3.50;;;20.10;57.80;;;;;;4988539;28;20476;-45
2022/07/19 04:40:12;;;;;;;5.30;4.30;;;20.20;57.80;;;;;;4988764;28;20449;-45
2022/07/19 04:42:39;;;;;;;4.23;3.80;;;20.20;57.90;;;;;;4976693;28;20512;-45
2022/07/19 04:45:07;;;;;;;4.83;3.30;;;20.20;57.90;;;;;;4992158;28;20457;-45
2022/07/19 04:47:33;;;;;;;3.90;3.17;;;20.20;58.20;;;;;;4991169;28;20480;-45
2022/07/19 04:50:00;;;;;;;8.50;3.40;;;20.30;58.20;;;;;;4985887;28;20555;-45
2022/07/19 04:52:27;;;;;;;5.33;3.50;;;20.30;58.20;;;;;;4988771;28;20467;-44
2022/07/19 04:54:54;;;;;;;3.93;3.50;;;20.30;58.00;;;;;;4991801;28;20493;-45
2022/07/19 04:57:21;;;;;;;4.63;3.63;;;20.40;57.90;;;;;;4991440;28;20475;-44
2022/07/19 04:59:47;;;;;;;6.73;3.10;;;20.50;57.80;;;;;;4991382;28;20544;-46
2022/07/19 05:02:14;;;;;;;3.80;3.40;;;20.50;57.90;;;;;;4989299;28;20465;-44
2022/07/19 05:04:41;;;;;;;8.23;4.10;;;20.50;58.10;;;;;;4987077;28;21249;-44
2022/07/19 05:07:08;;;;;;;5.53;3.90;;;20.50;58.10;;;;;;4990210;28;20475;-44
2022/07/19 05:09:35;;;;;;;3.90;3.53;;;20.50;58.20;;;;;;4977692;28;20460;-49
2022/07/19 05:12:05;;;;;;;7.63;4.00;;;20.50;58.30;;;;;;4988719;28;20536;-48
2022/07/19 05:14:32;;;;;;;6.60;4.30;;;20.60;58.40;;;;;;5004381;28;20548;-48
2022/07/19 05:16:59;;;;;;;6.97;4.57;;;20.60;58.40;;;;;;5006293;28;20451;-48
2022/07/19 05:19:26;;;;;;;4.43;3.53;;;20.60;58.20;;;;;;4984866;28;20468;-48
2022/07/19 05:21:53;;;;;;;7.10;4.30;;;20.70;58.00;;;;;;5006896;28;20517;-49
2022/07/19 05:24:20;;;;;;;5.40;4.07;;;20.70;57.90;;;;;;5006854;28;20568;-48
2022/07/19 05:26:47;;;;;;;6.20;3.80;;;20.70;57.60;;;;;;5006572;28;20449;-48
2022/07/19 05:29:13;;;;;;;4.90;3.43;;;20.90;57.20;;;;;;4996592;28;20449;-49
2022/07/19 05:31:40;;;;;;;4.10;3.47;;;20.90;57.10;;;;;;5003784;28;20464;-49
2022/07/19 05:34:07;;;;;;;5.60;3.70;;;21.00;57.00;;;;;;5006664;28;20552;-48
2022/07/19 05:36:34;;;;;;;6.67;3.60;;;21.00;57.00;;;;;;4986480;28;20492;-48
2022/07/19 05:39:02;;;;;;;7.53;3.77;;;21.00;57.00;;;;;;5002488;28;20496;-48
2022/07/19 05:41:28;;;;;;;7.10;3.40;;;21.20;57.10;;;;;;5004939;28;20471;-48
2022/07/19 05:43:57;;;;;;;5.00;3.80;;;21.20;57.00;;;;;;5006123;28;20502;-47
2022/07/19 05:46:24;;;;;;;9.63;4.30;;;21.30;57.00;;;;;;5005589;28;20465;-49
2022/07/19 05:48:51;;;;;;;4.43;3.60;;;21.40;56.90;;;;;;5004903;28;20469;-49
2022/07/19 05:51:18;;;;;;;7.33;3.50;;;21.50;57.00;;;;;;5006152;28;20532;-50
2022/07/19 05:53:44;;;;;;;7.40;3.90;;;21.50;57.00;;;;;;5005315;28;20525;-49
2022/07/19 05:56:11;;;;;;;7.03;3.63;;;21.60;56.90;;;;;;5005054;28;20470;-49
2022/07/19 05:58:38;;;;;;;6.83;3.30;;;21.60;57.10;;;;;;4987671;28;20469;-49
2022/07/19 06:01:17;;;;;;;4.10;3.20;;;21.70;57.10;;;;;;5005944;28;20535;-49
2022/07/19 06:03:46;;;;;;;8.63;3.37;;;21.80;56.60;;;;;;5001713;28;20461;-49
2022/07/19 06:06:20;;;;;;;6.33;3.20;;;21.90;56.20;;;;;;5007338;28;20463;-49
2022/07/19 06:08:47;;;;;;;4.00;3.20;;;22.00;55.90;;;;;;5005922;28;20500;-49
2022/07/19 06:11:16;;;;;;;9.23;3.47;;;22.00;55.90;;;;;;5011510;28;20468;-49
2022/07/19 06:13:44;;;;;;;9.77;3.50;;;22.10;55.70;;;;;;5004298;28;20473;-49
2022/07/19 06:16:11;;;;;;;3.30;2.90;;;22.20;55.60;;;;;;5004961;28;20488;-49
2022/07/19 06:18:39;;;;;;;12.03;4.17;;;22.20;55.50;;;;;;4993731;28;20457;-52
2022/07/19 06:21:13;;;;;;;7.57;3.77;;;22.40;54.20;;;;;;4989340;28;20539;-46
2022/07/19 06:23:42;;;;;;;6.30;3.77;;;22.50;53.70;;;;;;4987235;28;20997;-46
2022/07/19 06:26:10;;;;;;;7.37;4.10;;;22.60;53.60;;;;;;4969220;28;21006;-45
2022/07/19 06:28:38;;;;;;;7.30;4.40;;;22.70;53.50;;;;;;4984682;28;20828;-45
2022/07/19 06:31:08;;;;;;;9.53;3.57;;;22.80;52.30;;;;;;4982546;28;21190;-45
2022/07/19 06:33:37;;;;;;;8.63;4.93;;;22.90;52.10;;;;;;4983093;28;20546;-45
2022/07/19 06:36:05;;;;;;;8.13;3.47;;;23.10;51.80;;;;;;4998135;28;20511;-50
2022/07/19 06:38:32;;;;;;;8.37;3.23;;;23.10;51.50;;;;;;5003558;28;20464;-49
2022/07/19 06:40:59;;;;;;;5.37;4.07;;;23.20;51.60;;;;;;5005331;28;20465;-49
2022/07/19 06:43:26;;;;;;;9.73;3.23;;;23.30;51.40;;;;;;5005237;28;20580;-49
2022/07/19 06:45:52;;;;;;;5.43;3.83;;;23.50;51.50;;;;;;5005749;28;20507;-49
2022/07/19 06:48:19;;;;;;;5.03;3.10;;;23.60;50.10;;;;;;4994635;28;20472;-45
2022/07/19 06:50:46;;;;;;;10.60;4.30;;;23.80;50.20;;;;;;4988657;28;20953;-46
2022/07/19 06:53:13;;;;;;;4.37;3.57;;;24.00;49.90;;;;;;5002014;28;20608;-50
2022/07/19 06:55:40;;;;;;;3.67;3.33;;;24.10;49.70;;;;;;4988735;28;20492;-50
2022/07/19 06:58:07;;;;;;;7.97;3.30;;;24.30;49.50;;;;;;4988229;28;20467;-50
2022/07/19 07:00:34;;;;;;;5.17;3.13;;;24.40;48.70;;;;;;4982632;28;20830;-51
2022/07/19 07:03:01;;;;;;;4.57;3.13;;;24.60;48.20;;;;;;4985906;28;20903;-50
2022/07/19 07:05:28;;;;;;;3.70;3.20;;;24.80;47.50;;;;;;4987044;28;20527;-51
2022/07/19 07:07:54;;;;;;;5.27;3.30;;;25.00;47.20;;;;;;4983359;28;20552;-51
2022/07/19 07:10:21;;;;;;;4.23;3.10;;;25.20;47.00;;;;;;4981799;28;20469;-50
2022/07/19 07:12:49;;;;;;;5.67;3.20;;;25.40;46.60;;;;;;4985132;28;20475;-49
2022/07/19 07:15:16;;;;;;;5.17;3.10;;;25.50;45.90;;;;;;4987336;28;20488;-50
2022/07/19 07:17:43;;;;;;;10.13;3.37;;;25.80;45.50;;;;;;4987490;28;20902;-50
2022/07/19 07:20:10;;;;;;;7.43;3.40;;;25.90;45.00;;;;;;4988342;28;20470;-50
2022/07/19 07:22:37;;;;;;;5.30;3.13;;;26.10;44.60;;;;;;4983054;28;20463;-51
2022/07/19 07:25:05;;;;;;;7.83;3.20;;;26.40;44.30;;;;;;4986082;28;20477;-49
2022/07/19 07:27:34;;;;;;;6.17;2.87;;;26.60;43.70;;;;;;4987750;28;20488;-50
2022/07/19 07:30:01;;;;;;;8.63;3.00;;;26.80;43.40;;;;;;4987828;28;20456;-50
2022/07/19 07:32:28;;;;;;;8.60;3.17;;;27.00;43.90;;;;;;4985012;28;20460;-49
2022/07/19 07:34:55;;;;;;;7.00;3.73;;;27.20;43.70;;;;;;4986773;28;20527;-49
2022/07/19 07:37:22;;;;;;;6.87;2.97;;;27.40;42.20;;;;;;4981006;28;20547;-50
2022/07/19 07:39:49;;;;;;;7.00;4.23;;;27.60;42.10;;;;;;4971576;28;20636;-50
2022/07/19 07:42:16;;;;;;;14.60;3.50;;;27.80;42.70;;;;;;4987907;28;20460;-50
2022/07/19 07:44:43;;;;;;;9.03;3.50;;;28.00;42.80;;;;;;4987134;28;20836;-50
2022/07/19 07:47:10;;;;;;;7.33;4.17;;;28.20;42.40;;;;;;4987398;28;20224;-50
2022/07/19 07:49:37;;;;;;;4.97;3.10;;;28.30;41.70;;;;;;4984920;28;20244;-50
2022/07/19 07:52:05;;;;;;;7.90;3.70;;;28.50;41.30;;;;;;4972534;28;20209;-50
2022/07/19 07:54:33;;;;;;;6.67;3.77;;;28.60;41.50;;;;;;4987430;28;20244;-50
2022/07/19 07:57:02;;;;;;;9.98;3.88;;;28.80;41.60;;;;;;4985293;28;20210;-50
2022/07/19 07:59:29;;;;;;;6.13;3.37;;;29.00;40.40;;;;;;4978673;28;20248;-50
2022/07/19 08:01:56;;;;;;;8.23;3.37;;;29.20;40.90;;;;;;4984246;28;20213;-50
2022/07/19 08:04:26;;;;;;;4.57;2.60;;;29.30;39.60;;;;;;4985201;28;20201;-50
2022/07/19 08:06:53;;;;;;;3.95;2.78;;;29.50;38.70;;;;;;4969898;28;20217;-50
2022/07/19 08:09:20;;;;;;;5.07;2.80;;;29.60;38.40;;;;;;4984620;28;20209;-50
2022/07/19 08:11:47;;;;;;;5.10;2.72;;;29.80;38.20;;;;;;4987536;28;20212;-50
2022/07/19 08:14:14;;;;;;;4.60;2.72;;;30.00;38.30;;;;;;4984666;28;20300;-50
2022/07/19 08:16:41;;;;;;;5.03;2.55;;;30.20;38.10;;;;;;4966531;28;20202;-50
2022/07/19 08:19:08;;;;;;;3.80;2.72;;;30.30;38.10;;;;;;4982303;28;20217;-50
2022/07/19 08:21:35;;;;;;;6.55;3.33;;;30.50;38.00;;;;;;4986015;28;20220;-50
2022/07/19 08:24:03;;;;;;;3.05;2.78;;;30.70;37.00;;;;;;4985396;28;20293;-50
2022/07/19 08:26:38;;;;;;;6.53;3.30;;;30.80;36.70;;;;;;4985938;28;20229;-50
2022/07/19 08:29:05;;;;;;;7.60;2.65;;;31.00;36.50;;;;;;4986588;28;20297;-50
2022/07/19 08:31:32;;;;;;;3.97;2.42;;;31.20;36.10;;;;;;4985312;28;20625;-50
2022/07/19 08:33:59;;;;;;;3.45;2.88;;;31.30;36.30;;;;;;4986996;28;20249;-50
2022/07/19 08:36:26;;;;;;;4.20;2.58;;;31.50;36.20;;;;;;4986497;28;20243;-50
2022/07/19 08:38:53;;;;;;;3.30;2.45;;;31.70;35.30;;;;;;4984337;28;20275;-50
2022/07/19 08:41:20;;;;;;;3.90;2.30;;;31.70;34.60;;;;;;4985738;28;20245;-50
2022/07/19 08:43:51;;;;;;;4.22;2.53;;;31.90;35.10;;;;;;4969797;28;20237;-50
2022/07/19 08:46:21;;;;;;;4.30;2.47;;;32.10;34.70;;;;;;4985620;28;20205;-50
2022/07/19 08:48:49;;;;;;;3.00;2.45;;;32.20;34.60;;;;;;4985938;28;20209;-50
2022/07/19 08:51:20;;;;;;;3.53;1.88;;;32.40;34.30;;;;;;4986934;28;20759;-49
2022/07/19 08:53:49;;;;;;;2.83;2.50;;;32.50;34.30;;;;;;4986294;28;20213;-50
2022/07/19 08:59:04;;;;;;;3.38;2.65;;;32.80;34.10;;;;;;4985031;28;20210;-50
2022/07/19 09:01:31;;;;;;;3.92;2.40;;;32.90;33.10;;;;;;4985668;28;20308;-50
2022/07/19 09:04:09;;;;;;;4.97;2.53;;;33.00;33.10;;;;;;4984084;28;20208;-50
2022/07/19 09:06:38;;;;;;;3.05;2.75;;;33.20;32.50;;;;;;4987062;28;20209;-50
2022/07/19 09:09:05;;;;;;;4.43;2.80;;;33.30;32.30;;;;;;4984506;28;20603;-50
2022/07/19 09:11:36;;;;;;;5.90;3.25;;;33.40;32.60;;;;;;4987486;28;20213;-50
2022/07/19 09:14:08;;;;;;;3.15;2.55;;;33.60;32.20;;;;;;4985349;28;20210;-50
2022/07/19 09:16:49;;;;;;;6.05;2.45;;;33.70;32.60;;;;;;4955129;28;20226;-50
2022/07/19 09:19:16;;;;;;;7.40;3.35;;;33.80;31.60;;;;;;4989813;28;20686;-50
2022/07/19 09:22:02;;;;;;;3.78;2.90;;;33.90;31.90;;;;;;4990651;28;20273;-50
2022/07/19 09:24:33;;;;;;;4.13;2.90;;;34.10;31.30;;;;;;4989696;28;20694;-51
2022/07/19 09:27:07;;;;;;;5.38;2.35;;;34.30;31.00;;;;;;4973101;28;20252;-50
2022/07/19 09:29:43;;;;;;;5.20;2.92;;;34.50;31.10;;;;;;4989629;28;20290;-51
2022/07/19 09:32:18;;;;;;;3.72;2.67;;;34.60;31.20;;;;;;4989754;28;20241;-51
2022/07/19 09:34:55;;;;;;;6.70;2.50;;;34.70;29.90;;;;;;4991022;28;20691;-50
2022/07/19 09:37:28;;;;;;;6.15;3.22;;;34.80;29.90;;;;;;4989221;28;20213;-51
2022/07/19 09:40:01;;;;;;;3.08;2.60;;;35.00;29.80;;;;;;4989515;28;20304;-51
2022/07/19 09:42:44;;;;;;;2.97;2.42;;;35.20;29.70;;;;;;4989419;28;20289;-51
2022/07/19 09:45:17;;;;;;;3.63;2.53;;;35.40;29.50;;;;;;4989895;28;20698;-51
2022/07/19 09:47:47;;;;;;;4.13;1.90;;;35.70;29.40;;;;;;4989686;28;20289;-51
2022/07/19 09:50:16;;;;;;;3.75;2.50;;;36.00;29.10;;;;;;4989461;28;20297;-51
2022/07/19 09:52:45;;;;;;;3.05;2.20;;;36.20;27.90;;;;;;4971662;28;20664;-51
2022/07/19 09:55:14;;;;;;;5.57;2.47;;;36.50;27.50;;;;;;4988415;28;20261;-51
2022/07/19 09:57:47;;;;;;;5.63;2.03;;;36.60;27.40;;;;;;4986505;28;20732;-51
2022/07/19 10:00:17;;;;;;;4.15;2.42;;;36.90;27.30;;;;;;4970985;28;20702;-51
2022/07/19 10:02:48;;;;;;;3.78;2.40;;;37.10;26.80;;;;;;4988356;28;20216;-51
2022/07/19 10:05:15;;;;;;;6.50;2.53;;;37.30;26.60;;;;;;4987534;28;20213;-51
2022/07/19 10:07:42;;;;;;;4.20;2.33;;;37.50;26.70;;;;;;4988751;28;20300;-51
2022/07/19 10:10:11;;;;;;;3.10;2.35;;;37.60;26.10;;;;;;4968256;28;20240;-51
2022/07/19 10:12:40;;;;;;;2.53;1.92;;;37.80;26.00;;;;;;4985605;28;20359;-51
2022/07/19 10:15:08;;;;;;;3.05;2.22;;;38.00;25.40;;;;;;4985087;28;20280;-51
2022/07/19 10:17:42;;;;;;;6.75;2.33;;;38.10;25.80;;;;;;4983943;28;20201;-51
2022/07/19 10:20:09;;;;;;;4.75;2.58;;;38.20;26.00;;;;;;4972255;28;20206;-51
2022/07/19 10:22:39;;;;;;;3.63;2.28;;;38.40;25.80;;;;;;4987118;28;20579;-51
2022/07/19 10:25:14;;;;;;;2.10;1.83;;;38.40;25.60;;;;;;4989129;28;20668;-51
2022/07/19 10:27:47;;;;;;;3.42;2.60;;;38.60;25.50;;;;;;4988940;28;20295;-51
2022/07/19 10:30:14;;;;;;;3.25;2.00;;;38.70;25.80;;;;;;4986321;28;20229;-51
2022/07/19 10:32:43;;;;;;;2.33;1.90;;;38.70;25.60;;;;;;4986133;28;20260;-51
2022/07/19 10:35:22;;;;;;;4.70;2.70;;;38.70;25.20;;;;;;4984978;28;20233;-51
2022/07/19 10:38:10;;;;;;;3.13;2.20;;;38.60;25.20;;;;;;4987989;28;20319;-51
2022/07/19 10:40:58;;;;;;;2.63;2.15;;;38.40;24.90;;;;;;4988876;28;20236;-51
2022/07/19 10:43:27;;;;;;;2.10;1.90;;;38.20;25.50;;;;;;4989364;28;20214;-50
2022/07/19 10:45:57;;;;;;;3.95;2.22;;;38.00;25.50;;;;;;4987798;28;20224;-51
2022/07/19 10:48:41;;;;;;;1.92;1.77;;;37.80;25.50;;;;;;4982697;28;20249;-50
2022/07/19 10:51:26;;;;;;;2.25;2.15;;;37.60;26.00;;;;;;4987297;28;20237;-51
2022/07/19 10:53:55;;;;;;;4.13;2.15;;;37.30;26.10;;;;;;4985648;28;20241;-51
2022/07/19 10:56:27;;;;;;;1.90;1.80;;;37.00;25.50;;;;;;4985558;28;20226;-51
2022/07/19 10:59:00;;;;;;;2.67;2.40;;;36.80;25.90;;;;;;4984679;28;20288;-51
2022/07/19 11:01:29;;;;;;;3.78;2.03;;;36.60;26.40;;;;;;4986507;28;20212;-51
2022/07/19 11:04:28;;;;;;;2.45;2.25;;;36.50;25.60;;;;;;4984742;28;20260;-51
2022/07/19 11:07:24;;;;;;;2.20;1.80;;;36.20;25.90;;;;;;4983143;28;20268;-51
2022/07/19 11:09:57;;;;;;;2.33;2.13;;;36.00;26.70;;;;;;4970249;28;20213;-50
2022/07/19 11:12:31;;;;;;;6.07;1.83;;;35.80;26.00;;;;;;4971618;28;20201;-51
2022/07/19 11:15:02;;;;;;;2.88;2.65;;;35.50;26.40;;;;;;4986020;28;20241;-51
2022/07/19 11:17:57;;;;;;;2.53;2.33;;;35.40;27.00;;;;;;4980471;28;20987;-51
2022/07/19 11:20:32;;;;;;;2.30;2.20;;;35.30;27.40;;;;;;4986008;28;21045;-51
2022/07/19 11:23:01;;;;;;;3.03;1.98;;;35.20;27.10;;;;;;4983016;28;20209;-51
2022/07/19 11:25:36;;;;;;;3.40;2.30;;;35.20;27.10;;;;;;4980588;28;20236;-51
2022/07/19 11:28:04;;;;;;;2.47;2.20;;;35.10;27.50;;;;;;4980267;28;20296;-50
2022/07/19 11:30:34;;;;;;;2.55;1.92;;;35.00;27.90;;;;;;4985051;28;20304;-50
2022/07/19 11:33:04;;;;;;;2.83;2.42;;;34.90;28.30;;;;;;4985441;28;20706;-49
2022/07/19 11:35:31;;;;;;;5.47;2.65;;;34.90;28.30;;;;;;4959431;28;20315;-50
2022/07/19 11:38:00;;;;;;;3.20;2.00;;;34.80;28.60;;;;;;4979072;28;20239;-49
2022/07/19 11:40:36;;;;;;;3.22;2.78;;;34.80;29.00;;;;;;4984277;28;20575;-49
2022/07/19 11:43:07;;;;;;;5.05;3.05;;;34.70;28.90;;;;;;4987417;28;20219;-49
2022/07/19 11:45:49;;;;;;;2.85;2.55;;;34.70;29.00;;;;;;4984758;28;20209;-49
2022/07/19 11:48:30;;;;;;;8.38;2.80;;;34.60;28.80;;;;;;4986301;28;20206;-50
2022/07/19 11:51:02;;;;;;;4.90;3.17;;;34.60;29.20;;;;;;4986357;28;20213;-49
2022/07/19 11:53:29;;;;;;;7.00;3.20;;;34.60;29.20;;;;;;4986357;28;20219;-50
2022/07/19 11:55:56;;;;;;;5.85;3.05;;;34.50;29.20;;;;;;4982484;28;20221;-50
2022/07/19 11:58:24;;;;;;;3.55;3.35;;;34.50;29.40;;;;;;4969260;28;20205;-50
2022/07/19 12:00:51;;;;;;;3.55;3.25;;;34.40;29.20;;;;;;4968328;28;20210;-50
2022/07/19 12:03:19;;;;;;;2.92;2.70;;;34.40;29.70;;;;;;4968528;28;20219;-50
2022/07/19 12:06:04;;;;;;;4.05;3.00;;;34.40;29.70;;;;;;4962015;28;20212;-50
2022/07/19 12:08:40;;;;;;;4.93;3.25;;;34.40;29.80;;;;;;4967096;28;20639;-50
2022/07/19 12:11:23;;;;;;;2.75;2.55;;;34.40;30.10;;;;;;4984705;28;20679;-50
2022/07/19 12:13:54;;;;;;;3.33;3.13;;;34.40;29.60;;;;;;4984310;28;20312;-50
2022/07/19 12:16:22;;;;;;;3.85;2.80;;;34.40;29.50;;;;;;4987041;28;20229;-50
2022/07/19 12:18:57;;;;;;;5.75;2.95;;;34.40;29.60;;;;;;4985628;28;20218;-50
2022/07/19 12:21:31;;;;;;;3.50;3.20;;;34.40;29.40;;;;;;4986195;28;20581;-50
2022/07/19 12:24:10;;;;;;;3.42;3.13;;;34.30;29.50;;;;;;4985755;28;20232;-50
2022/07/19 12:26:38;;;;;;;2.70;2.50;;;34.30;29.60;;;;;;4987009;28;20630;-51
2022/07/19 12:29:21;;;;;;;4.68;2.80;;;34.30;29.80;;;;;;4985605;28;20210;-51
2022/07/19 12:31:50;;;;;;;4.72;3.25;;;34.30;30.10;;;;;;4983835;28;20231;-51
2022/07/19 12:34:18;;;;;;;4.10;2.88;;;34.40;30.10;;;;;;4984571;28;20217;-51
2022/07/19 12:36:45;;;;;;;5.13;2.97;;;34.40;30.20;;;;;;4984206;28;20332;-51
2022/07/19 12:39:19;;;;;;;3.22;2.92;;;34.50;30.20;;;;;;4984093;28;20216;-51
2022/07/19 12:41:58;;;;;;;3.58;2.95;;;34.50;29.70;;;;;;4983342;28;20712;-51
2022/07/19 12:44:25;;;;;;;4.45;3.05;;;34.60;29.20;;;;;;4980800;28;20197;-50
2022/07/19 12:46:53;;;;;;;3.97;3.28;;;34.60;29.20;;;;;;4985495;28;20335;-50
2022/07/19 12:49:45;;;;;;;3.83;3.53;;;34.60;28.90;;;;;;4985848;28;20673;-51
2022/07/19 12:52:12;;;;;;;4.15;3.10;;;34.60;30.00;;;;;;4988092;28;20205;-50
2022/07/19 12:54:39;;;;;;;3.03;2.75;;;34.60;29.50;;;;;;4989383;28;20214;-50
2022/07/19 12:57:06;;;;;;;4.53;3.15;;;34.60;30.20;;;;;;4972673;28;20229;-50